Port Lavaca, TX

7:36 PM CDT on March 27, 2015 (GMT -0500)
J.S. Farms - 7 miles west of Port Lavaca | | Change Station
CLOSE
Current Station
Personal Weather Station
Location: Port Lavaca, TX
Elevation: 43 ft
Nearby Weather Stations
Active Advisory: Flood Warning

Elev 43 ft 28.60 °N, 96.73 °W | Updated 9 minutes ago

Clear
Clear
73.1 °F
Feels Like 77 °F
N
0.0
Wind Variable Wind from West
Gusts 4.0 mph

Today
High -- | Low -- °F
--% Chance of Precip.
Yesterday
High -- | Low -- °F
Precip. -- in
7:22 AM 7:41 PM
First Quarter, 57% visible
Pressure 30.12 in
Visibility 10.0 miles
Clouds Clear
Heat Index 77 °F
Dew Point 50 °F
Humidity 45%
Rainfall 0.00 in
Snow Depth Not available.
UV 0 out of 12
Pollen 9.80 out of 12
Air Quality Not available.
Flu Activity Not available.
METAR KPKV 280015Z AUTO 27005KT 10SM CLR 23/07 A3012 RMK AO2 T02280067

More Conditions Fewer Conditions

Pressure 30.12 in
Visibility 10.0 miles
Clouds Clear
Heat Index 77 °F
Dew Point 50 °F
Humidity 45%
Rainfall 0.00 in
Snow Depth Not available.
UV 0 out of 12
Pollen 9.80 out of 12
Air Quality Not available.
Flu Activity Not available.
METAR KPKV 280015Z AUTO 27005KT 10SM CLR 23/07 A3012 RMK AO2 T02280067

More Conditions Fewer Conditions

10-Day Weather Forecast

Almanac

Astronomy

Mar. 27, 2015 Rise Set
Actual Time
Civil Twilight
Nautical Twilight
Astronomical Twilight
Moon
Length of Visible Light
Length of Day
Tomorrow will be .
, % of the Moon is Illuminated

Today's Extremes

State Highs State Lows

Community

WunderPhotos

Upload Photos

1,808,887 photos uploaded!

WunderBlogs® & News

Nearby

Air Quality

  Air Quality AQ Index Pollutant
Not available.

Snow Depth

Station Depth Elevation

Earthquake Activity

City Distance Mag. Time & Date
Minimum magnitude displayed is 2.5.

Coastal Water Temperatures

Place Temperature

Stations

Nearby Weather Stations

Station Location Temp. Windchill Dew Point Humidity Wind Precip. Elev Updated Type
                   
Flood Warning
Statement as of 8:35 AM CDT on March 27, 2015

... Flood Warning continues for the Guadalupe River near Bloomington.
* Until late this afternoon... or until the warning is cancelled.
* At 8 am Friday... the stage was 21.6 feet and falling.
* Minor flooding is occurring and minor flooding is forecast.
* Flood stage is 20.0 feet.
* Forecast: the river will fall below flood stage late this
afternoon.
* At 20.0 feet... minor lowland flooding occurs... with the flow
reaching the right flood plain near the invista plant near
Bloomington. Downstream above Highway 35... the flow escapes
into the left flood plain... cutting off the lowest homes.


Below are the latest river stages and stage forecasts:

                      fld latest forecast 6 am lst
location stg stg day time Sat sun Mon Tue Wed

Guadalupe River
Bloomington 20 21.6 Fri 8 am 16.8 14.2 14.6 14.7 14.5


Lat... Lon 2869 9704 2869 9698 2867 9695 2857 9688
      2845 9680 2843 9685